Ana Sayfa
METAR-TAF:

METAR-TAF

Havaalanları :

Bacău, Romanya

Enlem: 46-35N, Boylam: 026-58E, yükseklik: 184 m

Güncel hava durumu gözlemi

Rapor saat 13:00 UTC de 26 dakika önce yapıldı.
Rüzgar güneydan 14 kt
Sıcaklık 14°C
Nem 94%
Basınç 1019 hPa
Görüş mesafesi 10 km veya daha fazla
1000 ft yükseklikte az bulutlu
2200 ft yükseklikte parçalı bulutlu

METAR: LRBC 151300Z 18014KT 9999 FEW010 SCT022 14/13 Q1019

Saat: 16:26 (13:26 UTC)

Tahmin

Rapor saat 11:00 UTC de 2 saat ve 26 dakika önce yapıldı.
Ayın 15'si saat 12 UTC'den ayın 15'si saat 21 UTC'ye kadar geçerli Tahmin
Rüzgar güneydan 10 kt
Görüş mesafesi 10 km veya daha fazla
1500 m altında bulut yok ve kümülonimbus yok

TAF: LRBC 151100Z 1512/1521 18010KT CAVOK

4.000'den fazla havaalanı için hava durumu gözlemleri ve tahminleri (METAR ve TAF raporları).

Kullanılabilir istasyonlar harita üzerinde sarı ve kırmızı noktalarla gösterilir.

İstasyonun adını görmek için fareyi noktanın üzerinde gezdirin.

Sonrasında hava gözlem ve tahminlerini görmek için tıklayın.

Haritayı değiştirmek için: yaklaştırmak için siyah artı işaretli yeşil düğmeye ve uzaklaştırmak için de eksi işaretli düğmeye hızla tıklayın; bitişik haritalar için yeşil okları kullanın.


METAR-TAF: